createdAt,value
2018-09-20T00:00:04.328Z,8.27
2018-09-20T00:02:31.619Z,8.97
2018-09-20T00:04:58.943Z,8.60
2018-09-20T00:07:26.313Z,8.53
2018-09-20T00:09:53.630Z,11.60
2018-09-20T00:12:20.915Z,9.10
2018-09-20T00:14:48.371Z,11.03
2018-09-20T00:17:15.681Z,12.93
2018-09-20T00:19:43.035Z,10.63
2018-09-20T00:22:18.456Z,9.67
2018-09-20T00:24:45.747Z,8.23
2018-09-20T00:27:13.032Z,10.23
2018-09-20T00:29:40.387Z,8.83
2018-09-20T00:32:07.739Z,10.63
2018-09-20T00:34:35.119Z,11.47
2018-09-20T00:37:02.653Z,15.93
2018-09-20T00:39:29.992Z,9.57
2018-09-20T00:41:57.310Z,14.20
2018-09-20T00:44:24.647Z,9.83
2018-09-20T00:46:52.006Z,8.73
2018-09-20T00:49:19.421Z,9.07
2018-09-20T00:51:46.755Z,8.53
2018-09-20T00:54:14.066Z,9.90
2018-09-20T00:56:41.381Z,13.20
2018-09-20T00:59:08.751Z,8.60
2018-09-20T01:01:36.098Z,9.40
2018-09-20T01:04:03.446Z,11.00
2018-09-20T01:06:30.788Z,5.90
2018-09-20T01:08:58.195Z,8.50
2018-09-20T01:11:25.568Z,8.67
2018-09-20T01:13:52.972Z,10.77
2018-09-20T01:16:20.291Z,8.13
2018-09-20T01:18:47.689Z,10.50
2018-09-20T01:21:15.017Z,11.00
2018-09-20T01:23:42.342Z,9.60
2018-09-20T01:26:09.674Z,6.70
2018-09-20T01:28:37.029Z,11.57
2018-09-20T01:31:04.446Z,9.73
2018-09-20T01:33:31.761Z,11.20
2018-09-20T01:35:59.182Z,8.60
2018-09-20T01:38:28.543Z,8.93
2018-09-20T01:40:55.898Z,8.87
2018-09-20T01:43:23.230Z,8.37
2018-09-20T01:45:50.586Z,11.37
2018-09-20T01:48:17.902Z,8.37
2018-09-20T01:50:45.240Z,6.60
2018-09-20T01:53:16.202Z,6.50
2018-09-20T01:55:43.571Z,9.20
2018-09-20T01:58:10.888Z,8.93
2018-09-20T02:00:38.265Z,7.13
2018-09-20T02:03:05.620Z,7.00
2018-09-20T02:05:32.967Z,8.40
2018-09-20T02:08:00.374Z,11.20
2018-09-20T02:10:27.706Z,7.63
2018-09-20T02:12:55.073Z,7.53
2018-09-20T02:15:22.386Z,10.10
2018-09-20T02:17:49.743Z,8.67
2018-09-20T02:20:17.071Z,9.87
2018-09-20T02:22:44.391Z,8.60
2018-09-20T02:25:11.705Z,9.10
2018-09-20T02:27:39.060Z,9.87
2018-09-20T02:30:06.426Z,7.73
2018-09-20T02:32:33.794Z,8.73
2018-09-20T02:35:01.230Z,10.43
2018-09-20T02:37:28.579Z,8.63
2018-09-20T02:39:55.894Z,11.50
2018-09-20T02:42:23.231Z,8.30
2018-09-20T02:44:50.563Z,14.53
2018-09-20T02:47:17.882Z,7.80
2018-09-20T02:49:45.211Z,7.60
2018-09-20T02:52:12.533Z,8.77
2018-09-20T02:54:39.845Z,7.33
2018-09-20T02:57:07.226Z,7.70
2018-09-20T02:59:34.559Z,12.93
2018-09-20T03:02:02.033Z,10.70
2018-09-20T03:04:29.530Z,8.10
2018-09-20T03:06:56.874Z,12.83
2018-09-20T03:09:24.174Z,10.83
2018-09-20T03:11:51.482Z,14.60
2018-09-20T03:14:18.783Z,7.90
2018-09-20T03:16:46.094Z,11.90
2018-09-20T03:19:13.434Z,12.03
2018-09-20T03:21:40.786Z,13.17
2018-09-20T03:24:08.209Z,7.60
2018-09-20T03:26:35.621Z,10.80
2018-09-20T03:29:02.931Z,11.20
2018-09-20T03:31:30.362Z,6.73
2018-09-20T03:33:57.836Z,16.37
2018-09-20T03:36:25.158Z,10.63
2018-09-20T03:38:52.494Z,10.10
2018-09-20T03:41:19.815Z,8.70
2018-09-20T03:43:57.602Z,7.87
2018-09-20T03:46:24.946Z,11.73
2018-09-20T03:48:52.272Z,8.63
2018-09-20T03:51:19.596Z,9.17
2018-09-20T03:53:46.917Z,9.10
2018-09-20T03:56:14.224Z,11.97
2018-09-20T03:58:41.546Z,9.10
2018-09-20T04:01:08.946Z,12.77
2018-09-20T04:03:36.853Z,10.00
2018-09-20T04:06:04.210Z,13.37
2018-09-20T04:08:31.510Z,7.23
2018-09-20T04:10:58.862Z,11.80
2018-09-20T04:13:26.173Z,12.97
2018-09-20T04:15:53.478Z,11.00
2018-09-20T04:18:20.778Z,11.87
2018-09-20T04:20:48.094Z,8.70
2018-09-20T04:23:15.403Z,8.50
2018-09-20T04:25:42.725Z,13.17
2018-09-20T04:28:10.186Z,14.70
2018-09-20T04:30:37.553Z,11.70
2018-09-20T04:33:04.958Z,9.33
2018-09-20T04:35:32.311Z,11.00
2018-09-20T04:37:59.687Z,12.40
2018-09-20T04:40:26.998Z,11.73
2018-09-20T04:42:54.305Z,9.60
2018-09-20T04:45:21.731Z,14.03
2018-09-20T04:47:49.047Z,8.23
2018-09-20T04:50:16.350Z,12.20
2018-09-20T04:52:43.714Z,9.97
2018-09-20T04:55:11.208Z,11.87
2018-09-20T04:57:38.597Z,12.97
2018-09-20T05:00:06.063Z,9.07
2018-09-20T05:02:33.366Z,13.23
2018-09-20T05:05:00.688Z,9.03
2018-09-20T05:07:28.018Z,9.40
2018-09-20T05:09:55.342Z,11.90
2018-09-20T05:12:22.802Z,9.83
2018-09-20T05:14:50.110Z,8.40
2018-09-20T05:17:17.427Z,11.73
2018-09-20T05:19:44.762Z,12.80
2018-09-20T05:22:15.290Z,8.63
2018-09-20T05:24:42.621Z,13.27
2018-09-20T05:27:10.015Z,13.97
2018-09-20T05:29:37.376Z,9.97
2018-09-20T05:32:04.819Z,8.90
2018-09-20T05:34:32.460Z,18.60
2018-09-20T05:36:59.821Z,13.57
2018-09-20T05:39:27.140Z,11.20
2018-09-20T05:41:54.458Z,9.57
2018-09-20T05:44:21.807Z,16.70
2018-09-20T05:46:49.143Z,13.20
2018-09-20T05:49:16.471Z,12.50
2018-09-20T05:51:43.798Z,14.63
2018-09-20T05:54:11.178Z,18.80
2018-09-20T05:56:38.576Z,8.30
2018-09-20T05:59:05.942Z,14.30
2018-09-20T06:01:33.278Z,13.10
2018-09-20T06:04:00.596Z,11.50
2018-09-20T06:06:27.907Z,13.03
2018-09-20T06:08:55.285Z,11.10
2018-09-20T06:11:22.614Z,14.80
2018-09-20T06:13:50.071Z,10.97
2018-09-20T06:16:17.389Z,20.80
2018-09-20T06:18:44.682Z,13.83
2018-09-20T06:21:12.148Z,15.07
2018-09-20T06:23:39.581Z,9.03
2018-09-20T06:26:06.911Z,12.73
2018-09-20T06:28:34.245Z,11.33
2018-09-20T06:31:01.509Z,11.10
2018-09-20T06:33:28.821Z,8.87
2018-09-20T06:35:56.176Z,8.50
2018-09-20T06:38:26.888Z,9.53
2018-09-20T06:40:54.311Z,12.13
2018-09-20T06:43:21.598Z,18.60
2018-09-20T06:45:48.870Z,10.70
2018-09-20T06:48:16.138Z,12.40
2018-09-20T06:50:43.410Z,11.30
2018-09-20T06:53:10.691Z,8.23
2018-09-20T06:55:38.745Z,13.57
2018-09-20T06:58:06.081Z,9.23
2018-09-20T07:00:33.386Z,11.30
2018-09-20T07:03:00.723Z,10.90
2018-09-20T07:05:28.081Z,8.43
2018-09-20T07:07:55.426Z,12.00
2018-09-20T07:10:22.931Z,11.07
2018-09-20T07:12:50.457Z,10.60
2018-09-20T07:15:18.000Z,12.03
2018-09-20T07:17:45.523Z,11.17
2018-09-20T07:20:13.070Z,10.97
2018-09-20T07:22:40.622Z,11.57
2018-09-20T07:25:08.307Z,7.60
2018-09-20T07:27:35.803Z,11.60
2018-09-20T07:30:03.352Z,12.50
2018-09-20T07:32:30.842Z,10.30
2018-09-20T07:34:58.363Z,8.40
2018-09-20T07:37:26.018Z,10.33
2018-09-20T07:39:53.520Z,7.10
2018-09-20T07:42:21.032Z,13.17
2018-09-20T07:44:48.580Z,11.20
2018-09-20T07:47:16.099Z,8.13
2018-09-20T07:49:43.585Z,9.47
2018-09-20T07:52:11.107Z,8.57
2018-09-20T07:54:38.685Z,10.53
2018-09-20T07:57:06.682Z,8.90
2018-09-20T07:59:34.166Z,8.10
2018-09-20T08:02:01.726Z,9.77
2018-09-20T08:04:29.194Z,12.97
2018-09-20T08:06:56.792Z,11.80
2018-09-20T08:09:24.227Z,8.17
2018-09-20T08:11:51.863Z,11.40
2018-09-20T08:14:19.469Z,6.43
2018-09-20T08:16:48.283Z,9.43
2018-09-20T08:19:15.798Z,9.07
2018-09-20T08:21:43.286Z,12.93
2018-09-20T08:24:10.846Z,9.00
2018-09-20T08:26:38.384Z,10.50
2018-09-20T08:29:05.887Z,11.27
2018-09-20T08:31:33.394Z,10.83
2018-09-20T08:34:00.917Z,8.67
2018-09-20T08:36:28.939Z,11.93
2018-09-20T08:38:56.426Z,10.10
2018-09-20T08:41:23.910Z,11.97
2018-09-20T08:43:51.402Z,10.23
2018-09-20T08:46:18.882Z,7.37
2018-09-20T08:48:46.343Z,10.13
2018-09-20T08:51:13.904Z,10.00
2018-09-20T08:53:41.468Z,8.60
2018-09-20T08:56:09.074Z,13.80
2018-09-20T08:58:36.643Z,10.00
2018-09-20T09:01:04.407Z,12.53
2018-09-20T09:03:31.926Z,7.53
2018-09-20T09:05:59.915Z,8.30
2018-09-20T09:08:27.411Z,7.67
2018-09-20T09:10:54.912Z,7.67
2018-09-20T09:13:22.438Z,9.27
2018-09-20T09:15:49.989Z,11.63
2018-09-20T09:18:17.514Z,12.73
2018-09-20T09:20:45.031Z,8.40
2018-09-20T09:23:12.602Z,13.10
2018-09-20T09:25:40.108Z,13.80
2018-09-20T09:28:07.885Z,10.50
2018-09-20T09:30:35.470Z,12.50
2018-09-20T09:33:02.982Z,8.90
2018-09-20T09:35:30.463Z,10.57
2018-09-20T09:37:57.974Z,6.37
2018-09-20T09:40:25.499Z,7.80
2018-09-20T09:42:53.030Z,8.67
2018-09-20T09:45:20.555Z,8.10
2018-09-20T09:47:48.043Z,9.63
2018-09-20T09:50:15.544Z,7.53
2018-09-20T09:52:43.515Z,6.47
2018-09-20T09:55:11.017Z,5.40
2018-09-20T09:57:38.623Z,7.30
2018-09-20T10:00:06.329Z,6.93
2018-09-20T10:02:33.911Z,10.23
2018-09-20T10:05:01.430Z,6.80
2018-09-20T10:07:28.970Z,5.27
2018-09-20T10:09:56.511Z,4.77
2018-09-20T10:12:24.093Z,8.20
2018-09-20T10:14:51.590Z,5.23
2018-09-20T10:17:19.154Z,4.90
2018-09-20T10:19:46.749Z,5.97
2018-09-20T10:22:14.246Z,7.27
2018-09-20T10:24:41.795Z,8.10
2018-09-20T10:27:09.374Z,4.60
2018-09-20T10:29:36.938Z,7.20
2018-09-20T10:32:04.539Z,9.37
2018-09-20T10:34:32.039Z,8.63
2018-09-20T10:36:59.672Z,9.10
2018-09-20T10:39:27.185Z,8.40
2018-09-20T10:41:54.719Z,7.67
2018-09-20T10:44:22.206Z,6.87
2018-09-20T10:46:49.662Z,5.53
2018-09-20T10:49:17.159Z,7.80
2018-09-20T10:51:44.674Z,6.33
2018-09-20T10:54:12.187Z,7.97
2018-09-20T10:56:39.742Z,8.80
2018-09-20T10:59:07.330Z,8.93
2018-09-20T11:01:34.864Z,9.23
2018-09-20T11:04:02.387Z,9.10
2018-09-20T11:06:29.943Z,5.50
2018-09-20T11:08:57.531Z,8.70
2018-09-20T11:11:25.083Z,6.13
2018-09-20T11:13:52.658Z,7.10
2018-09-20T11:16:20.162Z,7.03
2018-09-20T11:18:47.708Z,9.13
2018-09-20T11:21:15.222Z,6.70
2018-09-20T11:23:42.743Z,11.93
2018-09-20T11:26:10.344Z,7.87
2018-09-20T11:28:37.923Z,10.60
2018-09-20T11:31:05.448Z,11.33
2018-09-20T11:33:32.947Z,5.80
2018-09-20T11:36:00.437Z,6.93
2018-09-20T11:38:27.947Z,6.80
2018-09-20T11:40:55.450Z,7.63
2018-09-20T11:43:22.974Z,5.60
2018-09-20T11:45:50.471Z,7.43
2018-09-20T11:48:17.983Z,8.83
2018-09-20T11:50:45.483Z,8.47
2018-09-20T11:53:12.954Z,5.53
2018-09-20T11:55:40.473Z,7.20
2018-09-20T11:58:08.903Z,7.43
2018-09-20T12:00:37.005Z,7.73
2018-09-20T12:03:04.530Z,8.43
2018-09-20T12:05:32.007Z,7.77
2018-09-20T12:07:59.490Z,6.80
2018-09-20T12:10:27.056Z,6.13
2018-09-20T12:12:54.556Z,7.90
2018-09-20T12:15:22.088Z,10.20
2018-09-20T12:17:49.627Z,6.63
2018-09-20T12:20:17.154Z,6.37
2018-09-20T12:22:44.677Z,7.27
2018-09-20T12:25:12.214Z,6.53
2018-09-20T12:27:39.754Z,4.43
2018-09-20T12:30:07.625Z,6.07
2018-09-20T12:32:35.123Z,6.37
2018-09-20T12:35:02.678Z,7.20
2018-09-20T12:37:36.290Z,5.90
2018-09-20T12:40:04.885Z,5.60
2018-09-20T12:42:32.423Z,7.00
2018-09-20T12:45:00.427Z,4.80
2018-09-20T12:47:27.954Z,9.07
2018-09-20T12:49:55.732Z,6.20
2018-09-20T12:52:23.299Z,7.50
2018-09-20T12:54:50.848Z,5.60
2018-09-20T12:57:18.337Z,7.00
2018-09-20T12:59:45.831Z,3.30
2018-09-20T13:02:13.391Z,4.10
2018-09-20T13:04:40.934Z,6.43
2018-09-20T13:07:08.486Z,5.73
2018-09-20T13:09:36.083Z,6.30
2018-09-20T13:12:03.619Z,4.20
2018-09-20T13:14:31.127Z,8.27
2018-09-20T13:16:58.797Z,5.17
2018-09-20T13:19:26.397Z,5.43
2018-09-20T13:21:53.963Z,4.10
2018-09-20T13:24:21.498Z,6.93
2018-09-20T13:26:48.971Z,5.17
2018-09-20T13:29:16.647Z,4.50
2018-09-20T13:31:44.257Z,5.40
2018-09-20T13:34:11.666Z,5.20
2018-09-20T13:36:39.667Z,5.83
2018-09-20T13:39:09.598Z,7.40
2018-09-20T13:41:37.139Z,9.43
2018-09-20T13:44:04.649Z,3.70
2018-09-20T13:46:32.288Z,4.00
2018-09-20T13:48:59.799Z,8.43
2018-09-20T13:51:27.286Z,4.63
2018-09-20T13:53:54.814Z,8.60
2018-09-20T13:56:22.348Z,6.87
2018-09-20T13:58:49.796Z,8.93
2018-09-20T14:01:17.625Z,4.73
2018-09-20T14:03:45.156Z,5.20
2018-09-20T14:06:12.874Z,6.30
2018-09-20T14:08:40.466Z,3.37
2018-09-20T14:11:07.979Z,5.73
2018-09-20T14:13:35.487Z,5.53
2018-09-20T14:16:03.086Z,6.37
2018-09-20T14:18:30.580Z,7.43
2018-09-20T14:20:58.102Z,4.90
2018-09-20T14:23:25.587Z,5.87
2018-09-20T14:25:53.090Z,9.30
2018-09-20T14:28:20.574Z,5.13
2018-09-20T14:30:48.417Z,4.57
2018-09-20T14:33:15.917Z,4.80
2018-09-20T14:35:43.486Z,4.00
2018-09-20T14:38:10.973Z,3.13
2018-09-20T14:40:38.588Z,4.77
2018-09-20T14:43:06.155Z,4.57
2018-09-20T14:45:33.690Z,5.80
2018-09-20T14:48:01.194Z,4.20
2018-09-20T14:50:28.678Z,3.47
2018-09-20T14:52:56.219Z,9.43
2018-09-20T14:55:23.733Z,5.27
2018-09-20T14:57:51.219Z,6.30
2018-09-20T15:00:18.706Z,8.40
2018-09-20T15:02:46.316Z,6.47
2018-09-20T15:05:13.883Z,5.87
2018-09-20T15:07:41.403Z,5.13
2018-09-20T15:10:08.711Z,4.57
2018-09-20T15:12:36.255Z,4.10
2018-09-20T15:15:03.834Z,5.30
2018-09-20T15:17:31.304Z,4.57
2018-09-20T15:19:58.838Z,5.03
2018-09-20T15:22:26.436Z,3.17
2018-09-20T15:24:53.961Z,6.77
2018-09-20T15:27:21.434Z,5.77
2018-09-20T15:29:48.927Z,4.83
2018-09-20T15:32:16.461Z,4.10
2018-09-20T15:34:43.978Z,5.90
2018-09-20T15:37:11.527Z,8.27
2018-09-20T15:39:39.131Z,6.67
2018-09-20T15:42:06.806Z,4.57
2018-09-20T15:44:34.187Z,7.30
2018-09-20T15:47:01.523Z,9.00
2018-09-20T15:49:28.859Z,6.10
2018-09-20T15:51:56.224Z,6.60
2018-09-20T15:54:23.571Z,6.90
2018-09-20T15:56:50.904Z,3.00
2018-09-20T15:59:18.222Z,6.77
2018-09-20T16:01:45.591Z,6.17
2018-09-20T16:04:12.899Z,6.20
2018-09-20T16:06:40.246Z,5.73
2018-09-20T16:09:09.306Z,6.73
2018-09-20T16:11:36.699Z,5.27
2018-09-20T16:14:04.043Z,6.80
2018-09-20T16:16:31.398Z,7.57
2018-09-20T16:18:58.762Z,7.60
2018-09-20T16:21:26.160Z,7.13
2018-09-20T16:23:53.506Z,5.20
2018-09-20T16:26:20.858Z,6.90
2018-09-20T16:28:59.811Z,4.53
2018-09-20T16:33:43.583Z,5.23
2018-09-20T16:36:16.087Z,2.93
2018-09-20T16:38:53.398Z,5.23
2018-09-20T16:41:24.666Z,5.50
2018-09-20T16:43:52.036Z,7.90
2018-09-20T16:46:19.398Z,3.67
2018-09-20T16:48:46.718Z,5.57
2018-09-20T16:51:14.039Z,3.77
2018-09-20T16:53:41.402Z,7.00
2018-09-20T16:56:08.804Z,4.03
2018-09-20T16:58:36.440Z,3.77
2018-09-20T17:01:03.795Z,4.27
2018-09-20T17:03:31.192Z,6.30
2018-09-20T17:05:58.608Z,4.90
2018-09-20T17:08:25.935Z,6.53
2018-09-20T17:10:53.258Z,3.97
2018-09-20T17:13:20.656Z,2.60
2018-09-20T17:15:48.942Z,3.83
2018-09-20T17:18:16.352Z,2.87
2018-09-20T17:20:43.694Z,4.53
2018-09-20T17:23:11.038Z,4.00
2018-09-20T17:25:38.399Z,4.80
2018-09-20T17:28:06.012Z,3.13
2018-09-20T17:30:33.558Z,3.90
2018-09-20T17:33:01.109Z,4.17
2018-09-20T17:35:28.898Z,3.27
2018-09-20T17:37:58.191Z,5.97
2018-09-20T17:40:26.726Z,4.83
2018-09-20T17:43:00.907Z,6.03
2018-09-20T17:45:28.424Z,5.37
2018-09-20T17:47:55.960Z,4.60
2018-09-20T17:50:23.446Z,4.17
2018-09-20T17:52:51.247Z,4.00
2018-09-20T17:55:19.185Z,4.67
2018-09-20T17:57:47.141Z,3.57
2018-09-20T18:00:14.655Z,4.20
2018-09-20T18:02:42.135Z,4.03
2018-09-20T18:05:09.678Z,6.47
2018-09-20T18:07:37.218Z,9.37
2018-09-20T18:10:04.834Z,5.50
2018-09-20T18:12:32.979Z,3.77
2018-09-20T18:15:00.560Z,6.17
2018-09-20T18:17:28.023Z,7.13
2018-09-20T18:19:55.592Z,6.33
2018-09-20T18:22:23.062Z,4.70
2018-09-20T18:24:50.595Z,4.23
2018-09-20T18:27:18.087Z,9.03
2018-09-20T18:29:45.570Z,4.80
2018-09-20T18:32:13.092Z,6.43
2018-09-20T18:34:40.621Z,4.37
2018-09-20T18:37:08.148Z,6.83
2018-09-20T18:39:35.662Z,4.77
2018-09-20T18:42:03.294Z,5.90
2018-09-20T18:44:30.816Z,5.07
2018-09-20T18:46:58.333Z,4.67
2018-09-20T18:49:25.841Z,5.30
2018-09-20T18:51:53.390Z,4.30
2018-09-20T18:54:20.918Z,4.20
2018-09-20T18:56:48.446Z,5.20
2018-09-20T18:59:16.118Z,5.60
2018-09-20T19:01:43.692Z,4.73
2018-09-20T19:04:11.201Z,6.03
2018-09-20T19:06:38.733Z,7.00
2018-09-20T19:09:07.664Z,5.97
2018-09-20T19:11:35.223Z,4.10
2018-09-20T19:14:02.751Z,6.03
2018-09-20T19:16:30.248Z,4.40
2018-09-20T19:18:57.843Z,5.40
2018-09-20T19:21:25.404Z,5.87
2018-09-20T19:23:53.222Z,7.63
2018-09-20T19:26:21.133Z,4.13
2018-09-20T19:28:48.654Z,3.87
2018-09-20T19:31:16.178Z,7.87
2018-09-20T19:33:43.639Z,4.50
2018-09-20T19:36:11.220Z,6.80
2018-09-20T19:38:38.851Z,3.60
2018-09-20T19:41:36.758Z,4.73
2018-09-20T19:44:04.919Z,5.50
2018-09-20T19:46:35.432Z,5.50
2018-09-20T19:49:03.148Z,5.00
2018-09-20T19:51:30.862Z,8.47
2018-09-20T19:53:58.583Z,4.17
2018-09-20T19:56:26.233Z,3.97
2018-09-20T19:58:54.295Z,3.10
2018-09-20T20:01:22.212Z,3.83
2018-09-20T20:03:50.015Z,6.07
2018-09-20T20:06:17.786Z,4.30
2018-09-20T20:08:45.536Z,7.00
2018-09-20T20:11:13.334Z,5.73
2018-09-20T20:13:40.972Z,4.47
2018-09-20T20:16:08.806Z,7.57
2018-09-20T20:18:36.495Z,5.30
2018-09-20T20:21:04.287Z,5.50
2018-09-20T20:23:32.064Z,4.10
2018-09-20T20:25:59.997Z,3.10
2018-09-20T20:28:27.687Z,5.80
2018-09-20T20:30:55.366Z,4.20
2018-09-20T20:33:22.929Z,4.30
2018-09-20T20:35:50.574Z,5.90
2018-09-20T20:38:19.998Z,8.73
2018-09-20T20:40:47.671Z,3.43
2018-09-20T20:43:15.363Z,7.20
2018-09-20T20:45:42.965Z,4.57
2018-09-20T20:48:10.704Z,6.20
2018-09-20T20:50:38.535Z,4.60
2018-09-20T20:53:07.888Z,5.20
2018-09-20T20:55:38.313Z,5.70
2018-09-20T20:58:06.490Z,3.97
2018-09-20T21:00:34.290Z,6.93
2018-09-20T21:03:02.023Z,6.27
2018-09-20T21:05:29.687Z,3.63
2018-09-20T21:07:57.433Z,4.00
2018-09-20T21:10:25.216Z,4.07
2018-09-20T21:12:52.940Z,5.60
2018-09-20T21:15:20.566Z,5.30
2018-09-20T21:17:48.231Z,6.37
2018-09-20T21:20:15.865Z,3.77
2018-09-20T21:22:43.461Z,4.00
2018-09-20T21:25:11.075Z,3.93
2018-09-20T21:27:38.811Z,6.60
2018-09-20T21:30:06.606Z,3.87
2018-09-20T21:32:34.269Z,3.47
2018-09-20T21:35:02.041Z,4.30
2018-09-20T21:37:29.704Z,6.43
2018-09-20T21:39:57.409Z,4.63
2018-09-20T21:42:25.142Z,4.67
2018-09-20T21:44:52.791Z,6.33
2018-09-20T21:47:20.512Z,5.47
2018-09-20T21:49:48.251Z,5.90
2018-09-20T21:52:15.945Z,5.57
2018-09-20T21:54:43.562Z,6.43
2018-09-20T21:57:11.339Z,3.70
2018-09-20T21:59:38.959Z,5.00
2018-09-20T22:02:06.677Z,3.50
2018-09-20T22:04:34.494Z,3.63
2018-09-20T22:07:02.172Z,5.80
2018-09-20T22:09:30.401Z,5.13
2018-09-20T22:11:58.108Z,7.67
2018-09-20T22:14:25.738Z,7.50
2018-09-20T22:16:53.359Z,4.83
2018-09-20T22:19:21.517Z,5.97
2018-09-20T22:21:49.370Z,4.27
2018-09-20T22:24:17.146Z,6.47
2018-09-20T22:26:45.519Z,5.90
2018-09-20T22:29:13.281Z,6.30
2018-09-20T22:31:40.921Z,5.67
2018-09-20T22:34:08.608Z,4.07
2018-09-20T22:36:36.485Z,3.40
2018-09-20T22:39:07.517Z,4.70
2018-09-20T22:41:35.621Z,5.90
2018-09-20T22:44:03.371Z,5.63
2018-09-20T22:46:32.070Z,7.77
2018-09-20T22:48:59.775Z,4.03
2018-09-20T22:51:27.603Z,6.90
2018-09-20T22:53:55.484Z,6.60
2018-09-20T22:56:23.102Z,6.47
2018-09-20T22:58:53.026Z,6.23
2018-09-20T23:01:20.669Z,4.20
2018-09-20T23:03:48.433Z,6.77
2018-09-20T23:06:16.123Z,5.50
2018-09-20T23:08:45.371Z,3.43
2018-09-20T23:11:13.053Z,4.83
2018-09-20T23:13:40.678Z,4.43
2018-09-20T23:16:08.323Z,5.77
2018-09-20T23:18:36.038Z,7.27
2018-09-20T23:21:03.740Z,4.90
2018-09-20T23:23:31.373Z,5.97
2018-09-20T23:25:59.278Z,5.63
2018-09-20T23:28:26.866Z,7.87
2018-09-20T23:30:54.700Z,5.13
2018-09-20T23:33:22.366Z,4.43
2018-09-20T23:35:50.082Z,4.93
2018-09-20T23:38:17.949Z,3.70
2018-09-20T23:40:45.717Z,5.73
2018-09-20T23:43:13.280Z,6.83
2018-09-20T23:45:40.972Z,9.10
2018-09-20T23:48:08.577Z,5.63
2018-09-20T23:50:36.346Z,6.30
2018-09-20T23:53:04.074Z,5.97
2018-09-20T23:55:31.725Z,7.57
2018-09-20T23:57:59.431Z,5.53
